createdAt,value
2023-01-18T00:01:53.411Z,33.85
2023-01-18T00:04:40.800Z,33.60
2023-01-18T00:07:28.154Z,37.25
2023-01-18T00:10:15.878Z,30.35
2023-01-18T00:13:05.211Z,34.13
2023-01-18T00:15:53.643Z,29.48
2023-01-18T00:18:41.559Z,26.20
2023-01-18T00:21:29.305Z,27.70
2023-01-18T00:24:17.177Z,31.38
2023-01-18T00:27:04.760Z,24.48
2023-01-18T00:29:53.772Z,28.80
2023-01-18T00:32:41.223Z,32.85
2023-01-18T00:35:28.753Z,29.77
2023-01-18T00:38:16.070Z,28.77
2023-01-18T00:41:04.249Z,25.85
2023-01-18T00:43:51.653Z,29.73
2023-01-18T00:46:40.833Z,27.83
2023-01-18T00:49:28.376Z,28.02
2023-01-18T00:52:15.878Z,30.48
2023-01-18T00:55:03.991Z,30.02
2023-01-18T00:57:51.626Z,29.83
2023-01-18T01:00:39.512Z,28.85
2023-01-18T01:03:28.504Z,32.67
2023-01-18T01:06:33.603Z,28.02
2023-01-18T01:09:23.318Z,28.48
2023-01-18T01:12:28.747Z,30.73
2023-01-18T01:15:33.802Z,31.20
2023-01-18T01:18:38.836Z,28.25
2023-01-18T01:21:45.235Z,32.13
2023-01-18T01:24:50.696Z,29.42
2023-01-18T01:27:38.359Z,28.75
2023-01-18T01:30:26.068Z,30.05
2023-01-18T01:33:13.779Z,30.10
2023-01-18T01:36:03.632Z,29.27
2023-01-18T01:38:53.587Z,28.52
2023-01-18T01:41:41.514Z,33.60
2023-01-18T01:44:49.694Z,30.48
2023-01-18T01:47:40.643Z,32.28
2023-01-18T01:50:30.691Z,32.95
2023-01-18T01:53:18.278Z,30.45
2023-01-18T01:56:08.641Z,32.75
2023-01-18T01:58:59.940Z,25.83
2023-01-18T02:01:48.105Z,26.33
2023-01-18T02:04:36.426Z,31.83
2023-01-18T02:07:26.757Z,28.10
2023-01-18T02:10:14.231Z,23.35
2023-01-18T02:13:03.424Z,24.25
2023-01-18T02:16:01.566Z,30.65
2023-01-18T02:18:55.702Z,24.90
2023-01-18T02:21:47.248Z,26.25
2023-01-18T02:25:02.215Z,25.38
2023-01-18T02:27:56.730Z,24.33
2023-01-18T02:30:50.582Z,25.73
2023-01-18T02:33:46.845Z,24.95
2023-01-18T02:39:45.177Z,19.25
2023-01-18T02:42:50.773Z,25.40
2023-01-18T02:45:59.804Z,27.95
2023-01-18T02:48:50.617Z,24.92
2023-01-18T02:51:39.140Z,24.27
2023-01-18T02:54:26.563Z,25.13
2023-01-18T02:57:17.845Z,28.45
2023-01-18T03:00:07.965Z,27.77
2023-01-18T03:02:57.396Z,28.95
2023-01-18T03:05:48.721Z,26.73
2023-01-18T03:08:41.598Z,28.02
2023-01-18T03:11:36.938Z,23.90
2023-01-18T03:14:37.613Z,22.00
2023-01-18T03:17:36.276Z,27.73
2023-01-18T03:20:26.647Z,26.73
2023-01-18T03:23:38.202Z,22.08
2023-01-18T03:26:26.848Z,28.05
2023-01-18T03:29:33.810Z,25.55
2023-01-18T03:32:39.295Z,24.33
2023-01-18T03:35:29.611Z,23.75
2023-01-18T03:38:20.037Z,28.00
2023-01-18T03:41:09.674Z,27.65
2023-01-18T03:44:03.311Z,24.30
2023-01-18T03:46:50.988Z,25.23
2023-01-18T03:49:39.175Z,26.52
2023-01-18T03:52:31.850Z,25.33
2023-01-18T03:55:25.457Z,26.15
2023-01-18T03:58:15.514Z,24.15
2023-01-18T04:01:04.224Z,25.38
2023-01-18T04:03:53.561Z,27.15
2023-01-18T04:06:42.551Z,29.63
2023-01-18T04:09:30.209Z,24.67
2023-01-18T04:12:19.028Z,29.33
2023-01-18T04:15:07.867Z,25.80
2023-01-18T04:17:56.069Z,24.10
2023-01-18T04:20:43.649Z,29.00
2023-01-18T04:23:31.285Z,26.35
2023-01-18T04:26:19.390Z,22.50
2023-01-18T04:29:09.184Z,24.50
2023-01-18T04:31:56.750Z,20.67
2023-01-18T04:34:44.185Z,30.42
2023-01-18T04:37:34.290Z,30.50
2023-01-18T04:40:21.873Z,26.52
2023-01-18T04:43:09.636Z,24.27
2023-01-18T04:45:58.834Z,28.25
2023-01-18T04:48:50.040Z,30.00
2023-01-18T04:51:39.360Z,28.42
2023-01-18T04:54:27.950Z,25.70
2023-01-18T04:57:15.440Z,23.30
2023-01-18T05:00:03.472Z,26.25
2023-01-18T05:02:52.510Z,30.17
2023-01-18T05:05:40.145Z,26.05
2023-01-18T05:08:27.730Z,25.08
2023-01-18T05:11:17.408Z,29.35
2023-01-18T05:14:04.831Z,24.17
2023-01-18T05:16:52.327Z,24.30
2023-01-18T05:19:41.259Z,24.48
2023-01-18T05:22:29.261Z,28.50
2023-01-18T05:25:17.216Z,24.65
2023-01-18T05:28:04.735Z,28.40
2023-01-18T05:30:52.314Z,24.63
2023-01-18T05:33:40.081Z,26.23
2023-01-18T05:36:28.803Z,30.60
2023-01-18T05:39:16.764Z,40.28
2023-01-18T05:42:04.821Z,46.25
2023-01-18T05:44:52.277Z,37.15
2023-01-18T05:47:41.269Z,30.83
2023-01-18T05:50:28.946Z,32.30
2023-01-18T05:53:20.005Z,30.95
2023-01-18T05:56:09.637Z,32.28
2023-01-18T05:58:57.050Z,28.60
2023-01-18T06:01:44.578Z,33.22
2023-01-18T06:04:32.205Z,29.73
2023-01-18T06:07:19.599Z,26.50
2023-01-18T06:10:09.771Z,37.72
2023-01-18T06:12:57.638Z,32.05
2023-01-18T06:15:49.526Z,36.58
2023-01-18T06:18:38.614Z,32.25
2023-01-18T06:21:26.133Z,29.08
2023-01-18T06:24:13.886Z,31.77
2023-01-18T06:27:04.194Z,30.77
2023-01-18T06:29:51.745Z,25.60
2023-01-18T06:32:39.400Z,26.33
2023-01-18T06:35:26.851Z,28.20
2023-01-18T06:38:14.514Z,26.98
2023-01-18T06:41:01.907Z,28.95
2023-01-18T06:43:51.559Z,31.15
2023-01-18T06:46:39.081Z,29.13
2023-01-18T06:49:27.063Z,27.88
2023-01-18T06:52:14.605Z,29.63
2023-01-18T06:55:02.407Z,28.70
2023-01-18T06:57:50.230Z,24.33
2023-01-18T07:00:39.090Z,29.52
2023-01-18T07:03:27.494Z,27.30
2023-01-18T07:06:14.984Z,31.02
2023-01-18T07:09:02.708Z,30.67
2023-01-18T07:11:50.283Z,29.83
2023-01-18T07:14:38.193Z,24.15
2023-01-18T07:17:27.270Z,29.08
2023-01-18T07:20:16.814Z,30.10
2023-01-18T07:23:05.513Z,25.90
2023-01-18T07:26:00.322Z,29.60
2023-01-18T07:28:48.842Z,36.72
2023-01-18T07:31:38.293Z,26.38
2023-01-18T07:34:29.679Z,31.00
2023-01-18T07:37:17.343Z,35.42
2023-01-18T07:40:05.280Z,32.13
2023-01-18T07:42:59.032Z,34.83
2023-01-18T07:45:54.690Z,26.77
2023-01-18T07:48:42.368Z,34.00
2023-01-18T07:51:31.485Z,31.77
2023-01-18T07:54:19.812Z,33.33
2023-01-18T07:57:08.260Z,33.30
2023-01-18T07:59:56.024Z,37.75
2023-01-18T08:02:43.671Z,31.52
2023-01-18T08:05:33.291Z,31.58
2023-01-18T08:08:22.236Z,31.60
2023-01-18T08:11:10.705Z,34.75
2023-01-18T08:13:58.384Z,36.92
2023-01-18T08:16:46.182Z,38.13
2023-01-18T08:19:33.996Z,41.53
2023-01-18T08:22:21.888Z,42.45
2023-01-18T08:25:11.431Z,39.58
2023-01-18T08:27:59.603Z,34.47
2023-01-18T08:30:48.662Z,32.63
2023-01-18T08:33:41.535Z,34.55
2023-01-18T08:36:29.833Z,34.60
2023-01-18T08:39:17.624Z,35.97
2023-01-18T08:42:06.722Z,31.95
2023-01-18T08:44:54.294Z,33.65
2023-01-18T08:47:42.321Z,32.65
2023-01-18T08:50:31.288Z,33.22
2023-01-18T08:53:18.636Z,37.60
2023-01-18T08:56:07.151Z,32.45
2023-01-18T08:58:56.323Z,34.40
2023-01-18T09:01:43.968Z,33.53
2023-01-18T09:04:31.611Z,42.92
2023-01-18T09:07:19.979Z,36.70
2023-01-18T09:10:09.095Z,61.58
2023-01-18T09:12:57.532Z,49.40
2023-01-18T09:15:47.040Z,41.88
2023-01-18T09:18:35.055Z,42.55
2023-01-18T09:21:22.784Z,37.40
2023-01-18T09:24:13.052Z,35.00
2023-01-18T09:27:00.505Z,38.38
2023-01-18T09:29:52.221Z,41.90
2023-01-18T09:32:42.437Z,40.75
2023-01-18T09:35:30.111Z,40.97
2023-01-18T09:38:17.691Z,36.10
2023-01-18T09:41:09.114Z,43.13
2023-01-18T09:43:59.673Z,38.55
2023-01-18T09:46:49.208Z,41.80
2023-01-18T09:49:46.140Z,41.40
2023-01-18T09:52:45.133Z,38.47
2023-01-18T09:55:43.558Z,37.20
2023-01-18T09:58:43.114Z,37.75
2023-01-18T10:01:34.156Z,38.95
2023-01-18T10:04:25.696Z,36.88
2023-01-18T10:07:17.645Z,33.33
2023-01-18T10:10:06.436Z,35.85
2023-01-18T10:13:02.364Z,36.58
2023-01-18T10:15:50.946Z,37.83
2023-01-18T10:18:45.834Z,40.17
2023-01-18T10:21:47.495Z,40.83
2023-01-18T10:24:43.944Z,38.38
2023-01-18T10:27:51.204Z,37.40
2023-01-18T10:30:55.890Z,34.33
2023-01-18T10:33:45.294Z,32.10
2023-01-18T10:36:39.038Z,30.88
2023-01-18T10:39:32.644Z,27.02
2023-01-18T10:42:24.860Z,24.65
2023-01-18T10:45:21.478Z,26.52
2023-01-18T10:48:29.048Z,25.42
2023-01-18T10:51:29.952Z,26.60
2023-01-18T10:54:24.244Z,25.25
2023-01-18T10:57:25.532Z,24.92
2023-01-18T11:00:27.821Z,25.42
2023-01-18T11:03:16.515Z,21.17
2023-01-18T11:06:07.259Z,25.15
2023-01-18T11:08:55.395Z,25.73
2023-01-18T11:12:12.442Z,28.73
2023-01-18T11:15:28.291Z,25.77
2023-01-18T11:18:17.628Z,24.90
2023-01-18T11:21:11.644Z,24.05
2023-01-18T11:24:06.915Z,24.55
2023-01-18T11:26:59.153Z,25.85
2023-01-18T11:29:47.722Z,26.98
2023-01-18T11:32:37.996Z,27.95
2023-01-18T11:35:32.101Z,26.83
2023-01-18T11:38:20.483Z,28.65
2023-01-18T11:41:20.345Z,27.65
2023-01-18T11:44:13.615Z,30.77
2023-01-18T11:47:04.050Z,31.48
2023-01-18T11:50:03.768Z,28.95
2023-01-18T11:52:58.067Z,31.00
2023-01-18T11:55:56.135Z,33.90
2023-01-18T11:58:43.864Z,33.33
2023-01-18T12:01:55.126Z,38.50
2023-01-18T12:04:56.930Z,34.35
2023-01-18T12:07:55.645Z,33.60
2023-01-18T12:10:53.610Z,32.38
2023-01-18T12:13:44.097Z,36.10
2023-01-18T12:16:46.974Z,37.33
2023-01-18T12:19:49.089Z,35.70
2023-01-18T12:23:00.023Z,41.35
2023-01-18T12:26:11.882Z,43.38
2023-01-18T12:29:24.601Z,39.25
2023-01-18T12:32:24.889Z,41.38
2023-01-18T12:35:33.362Z,38.72
2023-01-18T12:38:25.150Z,42.15
2023-01-18T12:41:32.227Z,36.90
2023-01-18T12:44:41.468Z,41.33
2023-01-18T12:47:35.329Z,41.03
2023-01-18T12:50:26.861Z,39.53
2023-01-18T12:53:18.963Z,44.15
2023-01-18T12:56:14.554Z,40.75
2023-01-18T12:59:06.184Z,40.95
2023-01-18T13:02:00.518Z,35.67
2023-01-18T13:04:54.136Z,40.53
2023-01-18T13:07:46.969Z,39.75
2023-01-18T13:10:35.795Z,38.58
2023-01-18T13:13:29.313Z,42.63
2023-01-18T13:16:26.564Z,36.80
2023-01-18T13:19:20.494Z,41.70
2023-01-18T13:22:15.058Z,37.67
2023-01-18T13:25:26.387Z,39.88
2023-01-18T13:28:19.687Z,37.88
2023-01-18T13:31:08.716Z,37.67
2023-01-18T13:33:58.431Z,38.20
2023-01-18T13:36:47.527Z,39.25
2023-01-18T13:39:45.133Z,39.83
2023-01-18T13:42:38.153Z,37.60
2023-01-18T13:45:28.085Z,32.60
2023-01-18T13:48:45.695Z,30.95
2023-01-18T13:51:54.018Z,35.40
2023-01-18T13:55:05.400Z,33.92
2023-01-18T13:57:56.312Z,33.30
2023-01-18T14:00:49.036Z,33.13
2023-01-18T14:03:41.635Z,35.30
2023-01-18T14:06:33.626Z,36.58
2023-01-18T14:09:34.094Z,36.67
2023-01-18T14:12:57.747Z,31.70
2023-01-18T14:15:51.421Z,38.30
2023-01-18T14:18:40.306Z,42.45
2023-01-18T14:21:35.233Z,40.45
2023-01-18T14:24:39.262Z,45.97
2023-01-18T14:27:32.569Z,41.55
2023-01-18T14:30:27.386Z,40.40
2023-01-18T14:33:18.906Z,42.08
2023-01-18T14:36:08.588Z,38.20
2023-01-18T14:39:13.721Z,40.78
2023-01-18T14:42:04.962Z,33.70
2023-01-18T14:44:58.831Z,37.45
2023-01-18T14:47:47.939Z,34.55
2023-01-18T14:50:40.450Z,44.13
2023-01-18T14:53:30.946Z,39.42
2023-01-18T14:56:21.817Z,43.15
2023-01-18T14:59:21.051Z,47.22
2023-01-18T15:02:18.953Z,39.40
2023-01-18T15:05:13.493Z,37.92
2023-01-18T15:08:01.118Z,35.00
2023-01-18T15:10:49.678Z,38.60
2023-01-18T15:13:47.613Z,44.10
2023-01-18T15:16:36.300Z,43.20
2023-01-18T15:19:29.123Z,41.90
2023-01-18T15:22:18.306Z,44.38
2023-01-18T15:25:08.710Z,38.03
2023-01-18T15:28:06.498Z,36.17
2023-01-18T15:31:01.610Z,40.17
2023-01-18T15:33:49.451Z,37.10
2023-01-18T15:36:37.443Z,47.63
2023-01-18T15:39:26.084Z,36.45
2023-01-18T15:42:16.873Z,40.42
2023-01-18T15:45:05.072Z,36.72
2023-01-18T15:47:56.179Z,37.65
2023-01-18T15:50:48.207Z,40.50
2023-01-18T15:53:38.887Z,37.53
2023-01-18T15:56:29.855Z,34.58
2023-01-18T15:59:22.836Z,42.72
2023-01-18T16:02:22.722Z,46.72
2023-01-18T16:05:22.950Z,45.47
2023-01-18T16:08:19.160Z,36.85
2023-01-18T16:11:06.896Z,38.72
2023-01-18T16:13:58.895Z,37.50
2023-01-18T16:16:47.506Z,36.15
2023-01-18T16:19:37.526Z,40.30
2023-01-18T16:22:30.921Z,33.85
2023-01-18T16:25:21.115Z,33.72
2023-01-18T16:28:08.907Z,37.20
2023-01-18T16:30:56.757Z,36.67
2023-01-18T16:33:44.367Z,42.33
2023-01-18T16:36:38.033Z,43.38
2023-01-18T16:39:31.128Z,42.58
2023-01-18T16:42:21.753Z,51.65
2023-01-18T16:45:15.020Z,41.45
2023-01-18T16:48:02.849Z,48.72
2023-01-18T16:50:50.780Z,56.05
2023-01-18T16:53:38.620Z,61.63
2023-01-18T16:56:27.435Z,56.35
2023-01-18T16:59:18.080Z,46.30
2023-01-18T17:02:05.653Z,44.20
2023-01-18T17:04:53.534Z,48.60
2023-01-18T17:07:41.456Z,47.45
2023-01-18T17:10:35.264Z,45.35
2023-01-18T17:13:24.172Z,42.25
2023-01-18T17:16:16.973Z,56.38
2023-01-18T17:19:04.595Z,42.15
2023-01-18T17:21:52.431Z,45.15
2023-01-18T17:24:40.137Z,42.72
2023-01-18T17:27:27.573Z,49.83
2023-01-18T17:30:18.773Z,46.78
2023-01-18T17:33:06.230Z,42.28
2023-01-18T17:35:54.895Z,57.58
2023-01-18T17:38:42.870Z,66.90
2023-01-18T17:41:30.728Z,79.28
2023-01-18T17:44:20.611Z,78.30
2023-01-18T17:47:12.989Z,91.75
2023-01-18T17:50:00.737Z,83.85
2023-01-18T17:52:48.427Z,90.38
2023-01-18T17:55:35.953Z,85.40
2023-01-18T17:58:23.604Z,92.53
2023-01-18T18:01:13.146Z,94.15
2023-01-18T18:04:01.969Z,85.55
2023-01-18T18:06:54.300Z,75.97
2023-01-18T18:09:42.899Z,76.75
2023-01-18T18:12:31.523Z,79.05
2023-01-18T18:15:22.274Z,70.15
2023-01-18T18:18:22.693Z,78.72
2023-01-18T18:21:12.456Z,69.60
2023-01-18T18:24:01.161Z,67.60
2023-01-18T18:26:49.231Z,75.03
2023-01-18T18:29:37.051Z,81.70
2023-01-18T18:32:25.037Z,74.20
2023-01-18T18:35:24.406Z,77.78
2023-01-18T18:38:18.852Z,73.22
2023-01-18T18:41:08.617Z,88.90
2023-01-18T18:43:56.012Z,92.75
2023-01-18T18:46:43.532Z,92.47
2023-01-18T18:49:31.334Z,96.97
2023-01-18T18:52:18.941Z,104.00
2023-01-18T18:55:10.537Z,113.45
2023-01-18T18:57:58.609Z,118.25
2023-01-18T19:00:46.982Z,126.10
2023-01-18T19:03:35.431Z,116.72
2023-01-18T19:06:23.905Z,98.22
2023-01-18T19:09:11.508Z,99.45
2023-01-18T19:12:00.309Z,105.85
2023-01-18T19:14:48.947Z,107.07
2023-01-18T19:17:37.302Z,103.53
2023-01-18T19:20:24.958Z,109.97
2023-01-18T19:23:12.765Z,94.47
2023-01-18T19:26:00.380Z,102.97
2023-01-18T19:28:49.249Z,87.80
2023-01-18T19:31:37.465Z,94.10
2023-01-18T19:34:25.737Z,89.97
2023-01-18T19:37:13.295Z,102.40
2023-01-18T19:40:01.117Z,96.65
2023-01-18T19:42:54.929Z,110.15
2023-01-18T19:45:43.902Z,89.93
2023-01-18T19:48:32.964Z,100.93
2023-01-18T19:51:22.886Z,84.05
2023-01-18T19:54:12.471Z,81.25
2023-01-18T19:57:00.252Z,76.40
2023-01-18T19:59:47.805Z,79.18
2023-01-18T20:02:38.821Z,82.22
2023-01-18T20:05:26.307Z,68.53
2023-01-18T20:08:13.560Z,84.05
2023-01-18T20:11:05.385Z,81.10
2023-01-18T20:13:53.655Z,83.00
2023-01-18T20:16:43.278Z,158.98
2023-01-18T20:19:33.722Z,125.13
2023-01-18T20:22:21.829Z,500.63
2023-01-18T20:25:11.319Z,176.15
2023-01-18T20:27:59.114Z,116.65
2023-01-18T20:30:49.570Z,90.65
2023-01-18T20:33:38.303Z,87.72
2023-01-18T20:36:27.957Z,94.15
2023-01-18T20:39:16.353Z,154.40
2023-01-18T20:42:03.986Z,104.55
2023-01-18T20:44:53.802Z,94.45
2023-01-18T20:47:41.503Z,96.47
2023-01-18T20:50:29.169Z,100.05
2023-01-18T20:53:17.943Z,98.13
2023-01-18T20:56:08.318Z,89.50
2023-01-18T20:58:58.191Z,90.60
2023-01-18T21:01:45.861Z,87.43
2023-01-18T21:04:34.035Z,82.88
2023-01-18T21:07:21.362Z,76.55
2023-01-18T21:10:12.004Z,87.30
2023-01-18T21:12:59.980Z,91.00
2023-01-18T21:15:54.681Z,74.60
2023-01-18T21:18:42.239Z,80.68
2023-01-18T21:21:31.837Z,84.82
2023-01-18T21:24:20.208Z,85.00
2023-01-18T21:27:09.141Z,83.70
2023-01-18T21:29:56.571Z,75.50
2023-01-18T21:32:43.969Z,83.60
2023-01-18T21:35:31.786Z,98.43
2023-01-18T21:38:19.671Z,83.88
2023-01-18T21:41:25.045Z,87.75
2023-01-18T21:44:31.255Z,93.22
2023-01-18T21:47:18.675Z,85.82
2023-01-18T21:50:24.372Z,93.53
2023-01-18T21:53:32.173Z,86.72
2023-01-18T21:56:20.021Z,83.75
2023-01-18T21:59:07.665Z,95.45
2023-01-18T22:01:56.866Z,97.38
2023-01-18T22:05:00.126Z,88.45
2023-01-18T22:07:47.748Z,78.93
2023-01-18T22:10:35.266Z,99.72
2023-01-18T22:13:22.635Z,85.03
2023-01-18T22:16:10.276Z,90.50
2023-01-18T22:18:59.373Z,91.20
2023-01-18T22:21:47.744Z,79.15
2023-01-18T22:24:35.380Z,71.53
2023-01-18T22:27:22.931Z,75.43
2023-01-18T22:30:11.464Z,66.07
2023-01-18T22:32:58.911Z,62.42
2023-01-18T22:35:47.744Z,82.22
2023-01-18T22:38:37.165Z,70.95
2023-01-18T22:41:27.558Z,67.97
2023-01-18T22:44:17.163Z,72.60
2023-01-18T22:47:04.641Z,68.05
2023-01-18T22:49:52.110Z,86.28
2023-01-18T22:52:40.909Z,80.15
2023-01-18T22:55:28.964Z,68.78
2023-01-18T22:58:16.816Z,63.80
2023-01-18T23:01:05.361Z,57.78
2023-01-18T23:03:53.675Z,62.92
2023-01-18T23:06:46.312Z,62.80
2023-01-18T23:09:35.127Z,58.20
2023-01-18T23:12:22.524Z,71.65
2023-01-18T23:15:29.029Z,123.60
2023-01-18T23:18:16.720Z,130.02
2023-01-18T23:21:04.099Z,107.60
2023-01-18T23:23:51.675Z,97.32
2023-01-18T23:26:40.628Z,92.03
2023-01-18T23:29:28.088Z,92.15
2023-01-18T23:32:15.556Z,89.25
2023-01-18T23:35:03.033Z,88.32
2023-01-18T23:37:50.340Z,94.22
2023-01-18T23:40:54.857Z,83.22
2023-01-18T23:44:01.045Z,96.75
2023-01-18T23:47:05.985Z,88.47
2023-01-18T23:50:10.715Z,96.22
2023-01-18T23:53:18.297Z,108.38
2023-01-18T23:56:05.735Z,89.75
2023-01-18T23:58:54.485Z,97.55
